createdAt,value
2023-07-18T00:00:39.745Z,0.00
2023-07-18T00:01:39.760Z,0.00
2023-07-18T00:02:39.715Z,0.00
2023-07-18T00:03:39.712Z,0.00
2023-07-18T00:04:39.693Z,0.00
2023-07-18T00:05:39.653Z,0.00
2023-07-18T00:06:39.627Z,0.00
2023-07-18T00:07:39.636Z,0.00
2023-07-18T00:08:39.599Z,0.00
2023-07-18T00:09:39.614Z,0.00
2023-07-18T00:10:39.607Z,0.00
2023-07-18T00:11:39.594Z,0.00
2023-07-18T00:12:39.566Z,0.00
2023-07-18T00:13:39.595Z,0.00
2023-07-18T00:14:39.557Z,0.00
2023-07-18T00:15:39.577Z,0.00
2023-07-18T00:16:39.599Z,0.00
2023-07-18T00:17:39.549Z,0.00
2023-07-18T00:18:39.527Z,0.00
2023-07-18T00:19:39.517Z,0.00
2023-07-18T00:20:39.530Z,0.00
2023-07-18T00:21:39.505Z,0.00
2023-07-18T00:22:39.535Z,0.00
2023-07-18T00:23:39.487Z,0.00
2023-07-18T00:24:39.462Z,0.00
2023-07-18T00:25:39.492Z,0.00
2023-07-18T00:26:39.505Z,0.00
2023-07-18T00:27:39.453Z,0.00
2023-07-18T00:28:39.442Z,0.00
2023-07-18T00:29:39.471Z,0.00
2023-07-18T00:30:39.411Z,0.00
2023-07-18T00:31:39.532Z,0.00
2023-07-18T00:32:39.439Z,0.00
2023-07-18T00:33:39.422Z,0.00
2023-07-18T00:34:39.387Z,0.00
2023-07-18T00:35:39.425Z,0.00
2023-07-18T00:36:39.372Z,0.00
2023-07-18T00:37:39.396Z,0.00
2023-07-18T00:38:39.350Z,0.00
2023-07-18T00:39:39.369Z,0.00
2023-07-18T00:40:39.352Z,0.00
2023-07-18T00:41:39.342Z,0.00
2023-07-18T00:42:39.360Z,0.00
2023-07-18T00:43:39.339Z,0.00
2023-07-18T00:44:39.317Z,0.00
2023-07-18T00:45:39.348Z,0.00
2023-07-18T00:46:39.381Z,0.00
2023-07-18T00:47:39.322Z,0.00
2023-07-18T00:48:39.325Z,0.00
2023-07-18T00:49:39.293Z,0.00
2023-07-18T00:50:39.266Z,0.00
2023-07-18T00:51:39.269Z,0.00
2023-07-18T00:52:39.284Z,0.00
2023-07-18T00:53:39.277Z,0.00
2023-07-18T00:54:39.222Z,0.00
2023-07-18T00:55:39.242Z,0.00
2023-07-18T00:56:39.200Z,0.00
2023-07-18T00:57:39.218Z,0.00
2023-07-18T00:58:39.194Z,0.00
2023-07-18T00:59:39.191Z,0.00
2023-07-18T01:00:39.175Z,0.00
2023-07-18T01:01:39.197Z,0.00
2023-07-18T01:02:39.295Z,0.00
2023-07-18T01:03:39.196Z,0.00
2023-07-18T01:04:39.174Z,0.00
2023-07-18T01:05:39.169Z,0.00
2023-07-18T01:06:39.157Z,0.00
2023-07-18T01:07:39.139Z,0.00
2023-07-18T01:08:39.167Z,0.00
2023-07-18T01:09:39.138Z,0.00
2023-07-18T01:10:39.118Z,0.00
2023-07-18T01:11:39.097Z,0.00
2023-07-18T01:12:39.073Z,0.00
2023-07-18T01:13:39.099Z,0.00
2023-07-18T01:14:39.072Z,0.00
2023-07-18T01:15:39.169Z,0.00
2023-07-18T01:16:39.053Z,0.00
2023-07-18T01:17:39.116Z,0.00
2023-07-18T01:18:39.025Z,0.00
2023-07-18T01:19:39.051Z,0.00
2023-07-18T01:20:39.061Z,0.00
2023-07-18T01:21:39.071Z,0.00
2023-07-18T01:22:39.046Z,0.00
2023-07-18T01:23:39.020Z,0.00
2023-07-18T01:24:38.984Z,0.00
2023-07-18T01:25:39.000Z,0.00
2023-07-18T01:26:38.968Z,0.00
2023-07-18T01:27:38.991Z,0.00
2023-07-18T01:28:38.969Z,0.00
2023-07-18T01:29:38.964Z,0.00
2023-07-18T01:30:38.961Z,0.00
2023-07-18T01:31:38.994Z,0.00
2023-07-18T01:32:38.977Z,0.00
2023-07-18T01:33:38.977Z,0.00
2023-07-18T01:34:38.905Z,0.00
2023-07-18T01:35:38.922Z,0.00
2023-07-18T01:36:38.928Z,0.00
2023-07-18T01:37:38.904Z,0.00
2023-07-18T01:38:38.881Z,0.00
2023-07-18T01:39:38.875Z,0.00
2023-07-18T01:40:38.867Z,0.00
2023-07-18T01:41:38.889Z,0.00
2023-07-18T01:42:38.904Z,0.00
2023-07-18T01:43:38.876Z,0.00
2023-07-18T01:44:38.862Z,0.00
2023-07-18T01:45:38.852Z,0.00
2023-07-18T01:46:38.821Z,0.00
2023-07-18T01:47:38.929Z,0.00
2023-07-18T01:48:38.815Z,0.00
2023-07-18T01:49:38.795Z,0.00
2023-07-18T01:50:38.782Z,0.00
2023-07-18T01:51:38.807Z,0.00
2023-07-18T01:52:38.780Z,0.00
2023-07-18T01:53:38.792Z,0.00
2023-07-18T01:54:38.752Z,0.00
2023-07-18T01:55:38.756Z,0.00
2023-07-18T01:56:38.728Z,0.00
2023-07-18T01:57:38.738Z,0.00
2023-07-18T01:58:38.723Z,0.00
2023-07-18T01:59:38.737Z,0.00
2023-07-18T02:00:38.754Z,0.00
2023-07-18T02:01:38.715Z,0.00
2023-07-18T02:02:38.815Z,0.00
2023-07-18T02:03:38.734Z,0.00
2023-07-18T02:04:38.676Z,0.00
2023-07-18T02:05:38.677Z,0.00
2023-07-18T02:06:38.683Z,0.00
2023-07-18T02:07:38.666Z,0.00
2023-07-18T02:08:38.650Z,0.00
2023-07-18T02:09:38.647Z,0.00
2023-07-18T02:10:38.647Z,0.00
2023-07-18T02:11:38.664Z,0.00
2023-07-18T02:12:38.611Z,0.00
2023-07-18T02:13:38.626Z,0.00
2023-07-18T02:14:38.599Z,0.00
2023-07-18T02:15:38.600Z,0.00
2023-07-18T02:16:38.613Z,0.00
2023-07-18T02:17:38.601Z,0.00
2023-07-18T02:18:38.570Z,0.00
2023-07-18T02:19:38.567Z,0.00
2023-07-18T02:20:38.596Z,0.00
2023-07-18T02:21:38.572Z,0.00
2023-07-18T02:22:38.577Z,0.00
2023-07-18T02:23:38.577Z,0.00
2023-07-18T02:24:38.556Z,0.00
2023-07-18T02:25:38.531Z,0.00
2023-07-18T02:26:38.513Z,0.00
2023-07-18T02:27:38.520Z,0.00
2023-07-18T02:28:38.524Z,0.00
2023-07-18T02:29:38.548Z,0.00
2023-07-18T02:30:38.544Z,0.00
2023-07-18T02:31:38.523Z,0.00
2023-07-18T02:32:38.480Z,0.00
2023-07-18T02:33:38.490Z,0.00
2023-07-18T02:34:38.508Z,0.00
2023-07-18T02:35:38.475Z,1.00
2023-07-18T02:36:38.460Z,1.00
2023-07-18T02:37:38.463Z,1.00
2023-07-18T02:38:38.431Z,1.00
2023-07-18T02:39:38.463Z,1.00
2023-07-18T02:40:38.459Z,1.00
2023-07-18T02:41:38.449Z,1.00
2023-07-18T02:42:38.440Z,1.00
2023-07-18T02:43:38.415Z,0.00
2023-07-18T02:44:38.389Z,1.00
2023-07-18T02:45:38.417Z,1.00
2023-07-18T02:46:38.419Z,1.00
2023-07-18T02:47:38.467Z,1.00
2023-07-18T02:48:38.361Z,2.00
2023-07-18T02:49:38.362Z,1.00
2023-07-18T02:50:38.373Z,2.00
2023-07-18T02:51:38.350Z,3.00
2023-07-18T02:52:38.330Z,2.00
2023-07-18T02:53:38.343Z,2.00
2023-07-18T02:54:38.322Z,3.00
2023-07-18T02:55:38.327Z,4.00
2023-07-18T02:56:38.311Z,7.00
2023-07-18T02:57:38.397Z,5.00
2023-07-18T02:58:38.299Z,5.00
2023-07-18T02:59:38.310Z,6.00
2023-07-18T03:00:38.312Z,6.00
2023-07-18T03:01:38.300Z,8.00
2023-07-18T03:02:38.334Z,10.00
2023-07-18T03:03:38.374Z,11.00
2023-07-18T03:04:38.231Z,10.00
2023-07-18T03:05:38.238Z,13.00
2023-07-18T03:06:38.227Z,14.00
2023-07-18T03:07:38.217Z,17.00
2023-07-18T03:08:38.239Z,19.00
2023-07-18T03:09:38.214Z,20.00
2023-07-18T03:10:38.213Z,24.00
2023-07-18T03:11:38.205Z,26.00
2023-07-18T03:12:38.178Z,31.00
2023-07-18T03:13:38.189Z,32.00
2023-07-18T03:14:38.183Z,35.00
2023-07-18T03:15:38.178Z,41.00
2023-07-18T03:16:38.199Z,42.00
2023-07-18T03:17:38.203Z,48.00
2023-07-18T03:18:38.128Z,55.00
2023-07-18T03:19:38.171Z,58.00
2023-07-18T03:20:38.132Z,63.00
2023-07-18T03:21:38.142Z,68.00
2023-07-18T03:22:38.192Z,74.00
2023-07-18T03:23:38.125Z,80.00
2023-07-18T03:24:38.114Z,86.00
2023-07-18T03:25:38.103Z,94.00
2023-07-18T03:26:38.082Z,97.00
2023-07-18T03:27:38.081Z,107.00
2023-07-18T03:28:38.094Z,114.00
2023-07-18T03:29:38.095Z,123.00
2023-07-18T03:30:38.056Z,130.00
2023-07-18T03:31:38.080Z,140.00
2023-07-18T03:32:38.034Z,147.00
2023-07-18T03:33:38.036Z,155.00
2023-07-18T03:34:38.020Z,165.00
2023-07-18T03:35:38.078Z,173.00
2023-07-18T03:36:38.502Z,181.00
2023-07-18T03:37:38.009Z,191.00
2023-07-18T03:38:37.995Z,204.00
2023-07-18T03:39:37.997Z,215.00
2023-07-18T03:40:37.966Z,227.00
2023-07-18T03:41:38.016Z,236.00
2023-07-18T03:42:37.948Z,249.00
2023-07-18T03:43:37.973Z,261.00
2023-07-18T03:44:37.932Z,275.00
2023-07-18T03:45:37.955Z,285.00
2023-07-18T03:46:38.043Z,302.00
2023-07-18T03:47:37.995Z,319.00
2023-07-18T03:48:37.968Z,338.00
2023-07-18T03:49:37.914Z,364.00
2023-07-18T03:50:37.908Z,386.00
2023-07-18T03:51:38.149Z,407.00
2023-07-18T03:52:37.892Z,440.00
2023-07-18T03:53:37.929Z,487.00
2023-07-18T03:54:37.893Z,531.00
2023-07-18T03:55:37.887Z,584.00
2023-07-18T03:56:37.874Z,592.00
2023-07-18T03:57:37.866Z,620.00
2023-07-18T03:58:37.848Z,770.00
2023-07-18T03:59:37.859Z,1043.00
2023-07-18T04:00:37.843Z,1909.00
2023-07-18T04:01:37.890Z,2637.00
2023-07-18T04:02:37.855Z,2247.00
2023-07-18T04:03:37.827Z,1479.00
2023-07-18T04:04:37.812Z,2407.00
2023-07-18T04:05:37.801Z,4489.00
2023-07-18T04:06:37.796Z,4920.00
2023-07-18T04:07:37.812Z,4839.00
2023-07-18T04:08:39.244Z,4883.00
2023-07-18T04:09:37.791Z,5268.00
2023-07-18T04:10:37.749Z,6052.00
2023-07-18T04:11:37.761Z,6447.00
2023-07-18T04:12:37.754Z,7025.00
2023-07-18T04:13:37.751Z,7019.00
2023-07-18T04:14:37.727Z,6498.00
2023-07-18T04:15:37.742Z,5877.00
2023-07-18T04:16:37.747Z,5885.00
2023-07-18T04:17:37.994Z,6170.00
2023-07-18T04:18:37.733Z,6629.00
2023-07-18T04:19:37.733Z,6664.00
2023-07-18T04:20:37.671Z,3963.00
2023-07-18T04:21:37.676Z,1362.00
2023-07-18T04:22:37.672Z,2045.00
2023-07-18T04:23:37.676Z,4099.00
2023-07-18T04:24:37.680Z,5705.00
2023-07-18T04:25:37.651Z,4983.00
2023-07-18T04:26:37.646Z,5894.00
2023-07-18T04:27:37.670Z,6350.00
2023-07-18T04:28:37.654Z,6809.00
2023-07-18T04:29:37.644Z,7546.00
2023-07-18T04:30:37.611Z,8023.00
2023-07-18T04:31:37.614Z,8265.00
2023-07-18T04:32:37.630Z,7918.00
2023-07-18T04:33:37.685Z,7656.00
2023-07-18T04:34:37.625Z,7466.00
2023-07-18T04:35:37.578Z,8206.00
2023-07-18T04:36:37.573Z,8963.00
2023-07-18T04:37:37.566Z,9171.00
2023-07-18T04:38:37.536Z,9006.00
2023-07-18T04:39:37.564Z,9027.00
2023-07-18T04:40:37.532Z,8616.00
2023-07-18T04:41:49.398Z,8194.00
2023-07-18T04:42:38.555Z,8069.00
2023-07-18T04:43:37.510Z,8134.00
2023-07-18T04:44:37.479Z,8552.00
2023-07-18T04:45:37.499Z,8877.00
2023-07-18T04:46:37.767Z,8350.00
2023-07-18T04:47:37.617Z,7580.00
2023-07-18T04:48:37.450Z,7827.00
2023-07-18T04:49:37.475Z,7694.00
2023-07-18T04:50:37.462Z,7810.00
2023-07-18T04:51:37.466Z,8365.00
2023-07-18T04:52:37.432Z,8997.00
2023-07-18T04:53:37.436Z,9164.00
2023-07-18T04:54:37.393Z,9069.00
2023-07-18T04:55:37.396Z,9578.00
2023-07-18T04:56:37.372Z,10061.00
2023-07-18T04:57:37.406Z,9371.00
2023-07-18T04:58:37.392Z,9118.00
2023-07-18T04:59:37.365Z,9537.00
2023-07-18T05:00:37.368Z,9881.00
2023-07-18T05:01:37.365Z,9511.00
2023-07-18T05:02:37.365Z,9061.00
2023-07-18T05:03:48.230Z,8553.00
2023-07-18T05:04:38.457Z,8203.00
2023-07-18T05:05:37.315Z,8385.00
2023-07-18T05:06:37.295Z,9405.00
2023-07-18T05:07:37.317Z,9629.00
2023-07-18T05:08:37.270Z,10033.00
2023-07-18T05:09:37.303Z,10268.00
2023-07-18T05:10:37.256Z,10374.00
2023-07-18T05:11:37.277Z,10467.00
2023-07-18T05:12:37.235Z,10605.00
2023-07-18T05:13:37.272Z,11367.00
2023-07-18T05:14:37.223Z,12136.00
2023-07-18T05:15:37.284Z,11271.00
2023-07-18T05:16:37.205Z,9722.00
2023-07-18T05:17:37.263Z,10347.00
2023-07-18T05:18:37.254Z,11905.00
2023-07-18T05:19:37.201Z,11801.00
2023-07-18T05:20:37.172Z,11647.00
2023-07-18T05:21:37.173Z,11131.00
2023-07-18T05:22:37.169Z,9973.00
2023-07-18T05:23:37.162Z,9981.00
2023-07-18T05:24:37.170Z,10436.00
2023-07-18T05:25:40.435Z,9913.00
2023-07-18T05:26:37.118Z,9402.00
2023-07-18T05:27:37.148Z,9364.00
2023-07-18T05:28:37.108Z,12280.00
2023-07-18T05:29:37.141Z,13036.00
2023-07-18T05:30:37.109Z,11308.00
2023-07-18T05:31:37.207Z,10937.00
2023-07-18T05:32:37.090Z,11403.00
2023-07-18T05:33:37.103Z,11530.00
2023-07-18T05:34:37.080Z,11392.00
2023-07-18T05:35:37.056Z,11091.00
2023-07-18T05:36:37.062Z,11033.00
2023-07-18T05:37:37.069Z,11429.00
2023-07-18T05:38:37.028Z,12050.00
2023-07-18T05:39:37.033Z,11893.00
2023-07-18T05:40:37.055Z,11507.00
2023-07-18T05:41:37.017Z,11343.00
2023-07-18T05:42:36.986Z,11366.00
2023-07-18T05:43:37.001Z,11332.00
2023-07-18T05:44:37.050Z,11179.00
2023-07-18T05:45:37.007Z,10434.00
2023-07-18T05:46:39.783Z,10928.00
2023-07-18T05:47:38.240Z,12365.00
2023-07-18T05:48:36.960Z,12452.00
2023-07-18T05:49:36.967Z,13461.00
2023-07-18T05:50:36.967Z,14147.00
2023-07-18T05:51:36.939Z,13451.00
2023-07-18T05:52:36.922Z,12867.00
2023-07-18T05:53:36.915Z,12456.00
2023-07-18T05:54:39.499Z,11743.00
2023-07-18T05:55:36.920Z,11154.00
2023-07-18T05:56:36.896Z,10948.00
2023-07-18T05:57:36.907Z,11389.00
2023-07-18T05:58:36.878Z,11745.00
2023-07-18T05:59:36.916Z,12006.00
2023-07-18T06:00:36.881Z,12100.00
2023-07-18T06:01:36.923Z,11939.00
2023-07-18T06:02:36.878Z,11834.00
2023-07-18T06:03:36.964Z,10799.00
2023-07-18T06:04:36.847Z,9877.00
2023-07-18T06:05:36.857Z,9751.00
2023-07-18T06:06:36.827Z,9536.00
2023-07-18T06:07:36.846Z,9316.00
2023-07-18T06:08:36.802Z,9271.00
2023-07-18T06:09:36.805Z,9354.00
2023-07-18T06:10:36.790Z,9322.00
2023-07-18T06:11:36.806Z,9201.00
2023-07-18T06:12:36.777Z,9215.00
2023-07-18T06:13:36.826Z,9274.00
2023-07-18T06:14:36.815Z,9368.00
2023-07-18T06:15:36.773Z,9587.00
2023-07-18T06:16:36.792Z,9986.00
2023-07-18T06:17:36.813Z,10054.00
2023-07-18T06:18:36.726Z,10069.00
2023-07-18T06:19:36.765Z,9939.00
2023-07-18T06:20:36.717Z,9786.00
2023-07-18T06:21:36.750Z,9621.00
2023-07-18T06:22:36.758Z,9342.00
2023-07-18T06:23:36.720Z,9187.00
2023-07-18T06:24:36.693Z,9314.00
2023-07-18T06:25:36.726Z,9688.00
2023-07-18T06:26:36.675Z,9967.00
2023-07-18T06:27:36.719Z,10058.00
2023-07-18T06:28:36.674Z,10048.00
2023-07-18T06:29:36.681Z,10110.00
2023-07-18T06:30:36.728Z,10278.00
2023-07-18T06:31:36.787Z,10243.00
2023-07-18T06:32:36.642Z,9963.00
2023-07-18T06:33:36.652Z,9845.00
2023-07-18T06:34:36.658Z,9775.00
2023-07-18T06:35:36.631Z,9651.00
2023-07-18T06:36:36.663Z,9747.00
2023-07-18T06:37:36.614Z,9858.00
2023-07-18T06:38:36.603Z,9990.00
2023-07-18T06:39:36.633Z,10116.00
2023-07-18T06:40:36.619Z,10314.00
2023-07-18T06:41:36.600Z,11352.00
2023-07-18T06:42:36.561Z,12082.00
2023-07-18T06:43:36.570Z,12582.00
2023-07-18T06:44:36.556Z,12749.00
2023-07-18T06:45:36.588Z,11844.00
2023-07-18T06:46:36.560Z,12214.00
2023-07-18T06:47:36.610Z,12613.00
2023-07-18T06:48:36.519Z,13037.00
2023-07-18T06:49:36.539Z,11786.00
2023-07-18T06:50:36.611Z,10989.00
2023-07-18T06:51:36.530Z,11709.00
2023-07-18T06:52:37.112Z,12618.00
2023-07-18T06:53:36.507Z,12392.00
2023-07-18T06:54:36.482Z,10387.00
2023-07-18T06:55:36.490Z,11333.00
2023-07-18T06:56:36.498Z,11423.00
2023-07-18T06:57:36.487Z,11232.00
2023-07-18T06:58:36.461Z,11420.00
2023-07-18T06:59:36.497Z,11668.00
2023-07-18T07:00:36.467Z,12975.00
2023-07-18T07:01:36.515Z,15674.00
2023-07-18T07:02:36.463Z,12747.00
2023-07-18T07:03:36.498Z,11167.00
2023-07-18T07:04:36.418Z,10596.00
2023-07-18T07:05:36.461Z,10455.00
2023-07-18T07:06:36.407Z,10575.00
2023-07-18T07:07:36.418Z,10599.00
2023-07-18T07:08:36.385Z,9797.00
2023-07-18T07:09:36.398Z,8918.00
2023-07-18T07:10:36.381Z,8834.00
2023-07-18T07:11:36.425Z,8832.00
2023-07-18T07:12:37.456Z,8893.00
2023-07-18T07:13:36.394Z,8864.00
2023-07-18T07:14:36.349Z,8851.00
2023-07-18T07:15:36.394Z,8827.00
2023-07-18T07:16:36.454Z,8717.00
2023-07-18T07:17:36.385Z,8720.00
2023-07-18T07:18:36.342Z,8713.00
2023-07-18T07:19:36.352Z,8715.00
2023-07-18T07:20:36.326Z,8786.00
2023-07-18T07:21:36.441Z,8864.00
2023-07-18T07:22:36.403Z,8838.00
2023-07-18T07:23:36.324Z,8852.00
2023-07-18T07:24:36.280Z,9037.00
2023-07-18T07:25:36.286Z,9241.00
2023-07-18T07:26:36.295Z,9297.00
2023-07-18T07:27:36.274Z,9299.00
2023-07-18T07:28:36.269Z,9237.00
2023-07-18T07:29:36.253Z,9280.00
2023-07-18T07:30:36.258Z,9218.00
2023-07-18T07:31:36.275Z,9125.00
2023-07-18T07:32:36.395Z,9120.00
2023-07-18T07:33:37.499Z,9178.00
2023-07-18T07:34:37.705Z,9227.00
2023-07-18T07:35:36.212Z,9307.00
2023-07-18T07:36:36.247Z,9494.00
2023-07-18T07:37:36.211Z,9976.00
2023-07-18T07:38:36.183Z,11012.00
2023-07-18T07:39:36.221Z,11420.00
2023-07-18T07:40:36.182Z,10407.00
2023-07-18T07:41:36.180Z,9372.00
2023-07-18T07:42:36.232Z,9033.00
2023-07-18T07:43:36.165Z,8829.00
2023-07-18T07:44:36.134Z,8736.00
2023-07-18T07:45:36.192Z,8653.00
2023-07-18T07:46:36.151Z,8591.00
2023-07-18T07:47:36.164Z,8551.00
2023-07-18T07:48:36.119Z,8545.00
2023-07-18T07:49:36.128Z,8547.00
2023-07-18T07:50:36.134Z,8572.00
2023-07-18T07:51:36.155Z,8557.00
2023-07-18T07:52:36.098Z,8596.00
2023-07-18T07:53:36.121Z,8575.00
2023-07-18T07:54:36.103Z,8569.00
2023-07-18T07:55:36.091Z,8566.00
2023-07-18T07:56:36.066Z,8574.00
2023-07-18T07:57:36.100Z,8413.00
2023-07-18T07:58:36.057Z,8147.00
2023-07-18T07:59:36.052Z,7903.00
2023-07-18T08:00:36.053Z,8547.00
2023-07-18T08:01:36.074Z,8552.00
2023-07-18T08:02:36.082Z,8538.00
2023-07-18T08:03:36.048Z,8544.00
2023-07-18T08:04:36.043Z,8521.00
2023-07-18T08:05:36.033Z,8217.00
2023-07-18T08:06:36.027Z,8377.00
2023-07-18T08:07:35.996Z,8531.00
2023-07-18T08:08:35.994Z,8552.00
2023-07-18T08:09:35.983Z,7248.00
2023-07-18T08:10:35.963Z,7352.00
2023-07-18T08:11:35.961Z,8348.00
2023-07-18T08:12:35.987Z,8532.00
2023-07-18T08:13:35.970Z,8541.00
2023-07-18T08:14:36.162Z,8529.00
2023-07-18T08:15:35.982Z,8491.00
2023-07-18T08:16:35.965Z,8363.00
2023-07-18T08:17:35.965Z,7883.00
2023-07-18T08:18:35.934Z,8054.00
2023-07-18T08:19:35.916Z,8255.00
2023-07-18T08:20:35.874Z,8337.00
2023-07-18T08:21:35.915Z,8633.00
2023-07-18T08:22:35.893Z,8800.00
2023-07-18T08:23:35.879Z,8952.00
2023-07-18T08:24:35.884Z,9053.00
2023-07-18T08:25:35.901Z,9140.00
2023-07-18T08:26:35.860Z,9302.00
2023-07-18T08:27:35.864Z,9400.00
2023-07-18T08:28:35.836Z,9466.00
2023-07-18T08:29:35.889Z,9333.00
2023-07-18T08:30:35.849Z,9155.00
2023-07-18T08:31:35.873Z,9084.00
2023-07-18T08:32:35.863Z,9046.00
2023-07-18T08:33:35.816Z,9248.00
2023-07-18T08:34:35.803Z,9553.00
2023-07-18T08:35:35.834Z,9654.00
2023-07-18T08:36:35.781Z,9679.00
2023-07-18T08:37:35.807Z,9785.00
2023-07-18T08:38:35.793Z,10132.00
2023-07-18T08:39:35.792Z,10222.00
2023-07-18T08:40:35.808Z,10849.00
2023-07-18T08:41:35.761Z,11519.00
2023-07-18T08:42:35.746Z,12379.00
2023-07-18T08:43:35.776Z,13599.00
2023-07-18T08:44:35.745Z,13682.00
2023-07-18T08:45:35.758Z,14073.00
2023-07-18T08:46:35.796Z,14247.00
2023-07-18T08:47:35.782Z,12986.00
2023-07-18T08:48:35.726Z,11464.00
2023-07-18T08:49:36.727Z,10053.00
2023-07-18T08:50:35.709Z,9157.00
2023-07-18T08:51:35.705Z,9036.00
2023-07-18T08:52:35.726Z,9413.00
2023-07-18T08:53:35.697Z,9512.00
2023-07-18T08:54:35.898Z,9364.00
2023-07-18T08:55:35.730Z,9337.00
2023-07-18T08:56:35.659Z,9066.00
2023-07-18T08:57:35.680Z,8983.00
2023-07-18T08:58:35.665Z,9014.00
2023-07-18T08:59:35.681Z,9124.00
2023-07-18T09:00:35.634Z,9319.00
2023-07-18T09:01:35.660Z,9636.00
2023-07-18T09:02:35.712Z,9064.00
2023-07-18T09:03:35.662Z,8529.00
2023-07-18T09:04:35.608Z,8440.00
2023-07-18T09:05:35.637Z,9482.00
2023-07-18T09:06:35.583Z,8698.00
2023-07-18T09:07:35.601Z,8559.00
2023-07-18T09:08:35.568Z,10826.00
2023-07-18T09:09:35.590Z,10923.00
2023-07-18T09:10:35.570Z,10471.00
2023-07-18T09:11:35.611Z,8114.00
2023-07-18T09:12:35.548Z,8274.00
2023-07-18T09:13:35.555Z,7942.00
2023-07-18T09:14:35.578Z,7883.00
2023-07-18T09:15:35.555Z,9468.00
2023-07-18T09:16:35.521Z,9749.00
2023-07-18T09:17:35.683Z,9593.00
2023-07-18T09:18:35.529Z,8489.00
2023-07-18T09:19:35.526Z,8473.00
2023-07-18T09:20:35.520Z,8654.00
2023-07-18T09:21:35.536Z,8062.00
2023-07-18T09:22:35.535Z,7883.00
2023-07-18T09:23:35.508Z,8234.00
2023-07-18T09:24:35.476Z,8272.00
2023-07-18T09:25:35.512Z,8431.00
2023-07-18T09:26:35.457Z,8165.00
2023-07-18T09:27:35.483Z,7743.00
2023-07-18T09:28:35.446Z,7577.00
2023-07-18T09:29:35.456Z,7747.00
2023-07-18T09:30:35.422Z,7446.00
2023-07-18T09:31:35.485Z,7444.00
2023-07-18T09:32:35.470Z,8122.00
2023-07-18T09:33:35.416Z,8196.00
2023-07-18T09:34:35.414Z,7927.00
2023-07-18T09:35:35.449Z,7647.00
2023-07-18T09:36:36.979Z,7714.00
2023-07-18T09:37:35.416Z,7857.00
2023-07-18T09:38:35.384Z,7322.00
2023-07-18T09:39:35.405Z,6833.00
2023-07-18T09:40:35.399Z,5544.00
2023-07-18T09:41:35.427Z,5082.00
2023-07-18T09:42:35.374Z,5786.00
2023-07-18T09:43:36.727Z,5856.00
2023-07-18T09:44:37.301Z,5374.00
2023-07-18T09:45:35.343Z,4810.00
2023-07-18T09:46:35.446Z,7851.00
2023-07-18T09:47:35.375Z,7668.00
2023-07-18T09:48:44.595Z,7443.00
2023-07-18T09:49:40.795Z,7131.00
2023-07-18T09:50:35.298Z,6920.00
2023-07-18T09:51:35.334Z,6683.00
2023-07-18T09:52:35.295Z,6436.00
2023-07-18T09:53:35.312Z,5804.00
2023-07-18T09:54:35.348Z,5900.00
2023-07-18T09:55:35.300Z,6075.00
2023-07-18T09:56:35.245Z,6245.00
2023-07-18T09:57:35.277Z,6517.00
2023-07-18T09:58:35.237Z,4784.00
2023-07-18T09:59:35.248Z,4291.00
2023-07-18T10:00:35.228Z,3779.00
2023-07-18T10:01:35.290Z,3866.00
2023-07-18T10:02:35.354Z,6228.00
2023-07-18T10:03:35.282Z,6856.00
2023-07-18T10:04:35.224Z,6818.00
2023-07-18T10:05:35.251Z,6668.00
2023-07-18T10:06:35.193Z,6732.00
2023-07-18T10:07:35.200Z,6535.00
2023-07-18T10:08:35.193Z,6258.00
2023-07-18T10:09:35.187Z,5864.00
2023-07-18T10:10:35.199Z,5884.00
2023-07-18T10:11:35.208Z,5759.00
2023-07-18T10:12:35.178Z,5646.00
2023-07-18T10:13:35.211Z,5496.00
2023-07-18T10:14:35.132Z,5340.00
2023-07-18T10:15:35.151Z,5260.00
2023-07-18T10:16:35.142Z,5158.00
2023-07-18T10:17:35.339Z,4960.00
2023-07-18T10:18:35.153Z,4835.00
2023-07-18T10:19:35.121Z,4762.00
2023-07-18T10:20:37.868Z,4726.00
2023-07-18T10:21:35.116Z,4692.00
2023-07-18T10:22:35.142Z,4595.00
2023-07-18T10:23:35.091Z,4685.00
2023-07-18T10:24:35.086Z,4563.00
2023-07-18T10:25:35.067Z,4526.00
2023-07-18T10:26:35.059Z,4016.00
2023-07-18T10:27:35.050Z,4481.00
2023-07-18T10:28:35.036Z,4490.00
2023-07-18T10:29:35.044Z,4458.00
2023-07-18T10:30:35.058Z,4399.00
2023-07-18T10:31:35.070Z,4468.00
2023-07-18T10:32:35.058Z,4438.00
2023-07-18T10:33:35.014Z,4545.00
2023-07-18T10:34:34.999Z,4530.00
2023-07-18T10:35:35.037Z,4457.00
2023-07-18T10:36:34.976Z,4362.00
2023-07-18T10:37:35.021Z,4508.00
2023-07-18T10:38:35.015Z,4544.00
2023-07-18T10:39:34.977Z,4510.00
2023-07-18T10:40:34.949Z,4463.00
2023-07-18T10:41:34.984Z,4430.00
2023-07-18T10:42:34.944Z,4376.00
2023-07-18T10:43:34.952Z,4101.00
2023-07-18T10:44:34.930Z,4420.00
2023-07-18T10:45:35.004Z,4480.00
2023-07-18T10:46:34.979Z,4639.00
2023-07-18T10:47:34.960Z,4699.00
2023-07-18T10:48:34.890Z,4274.00
2023-07-18T10:49:34.921Z,4545.00
2023-07-18T10:50:34.893Z,4968.00
2023-07-18T10:51:34.904Z,4937.00
2023-07-18T10:52:34.901Z,4748.00
2023-07-18T10:53:34.930Z,4824.00
2023-07-18T10:54:34.849Z,4864.00
2023-07-18T10:55:34.887Z,4924.00
2023-07-18T10:56:34.869Z,5037.00
2023-07-18T10:57:34.898Z,5096.00
2023-07-18T10:58:34.854Z,4491.00
2023-07-18T10:59:34.841Z,3851.00
2023-07-18T11:00:34.827Z,3778.00
2023-07-18T11:01:34.854Z,4265.00
2023-07-18T11:02:34.844Z,4015.00
2023-07-18T11:03:34.865Z,3881.00
2023-07-18T11:04:34.860Z,4011.00
2023-07-18T11:05:34.807Z,4109.00
2023-07-18T11:06:34.786Z,4122.00
2023-07-18T11:07:34.817Z,4213.00
2023-07-18T11:08:34.772Z,4273.00
2023-07-18T11:09:34.814Z,4304.00
2023-07-18T11:10:34.861Z,4209.00
2023-07-18T11:11:34.805Z,4173.00
2023-07-18T11:12:34.748Z,4129.00
2023-07-18T11:13:34.789Z,4051.00
2023-07-18T11:14:34.737Z,3946.00
2023-07-18T11:15:34.729Z,3810.00
2023-07-18T11:16:34.799Z,3688.00
2023-07-18T11:17:34.739Z,3588.00
2023-07-18T11:18:34.787Z,3510.00
2023-07-18T11:19:34.705Z,3452.00
2023-07-18T11:20:34.688Z,3377.00
2023-07-18T11:21:34.702Z,3449.00
2023-07-18T11:22:34.756Z,3587.00
2023-07-18T11:23:34.677Z,3974.00
2023-07-18T11:24:34.677Z,4533.00
2023-07-18T11:25:34.674Z,4848.00
2023-07-18T11:26:34.650Z,4901.00
2023-07-18T11:27:34.669Z,3700.00
2023-07-18T11:28:34.619Z,3830.00
2023-07-18T11:29:34.643Z,4250.00
2023-07-18T11:30:34.633Z,4328.00
2023-07-18T11:31:40.777Z,4034.00
2023-07-18T11:32:35.671Z,5004.00
2023-07-18T11:33:34.616Z,4137.00
2023-07-18T11:34:34.598Z,3705.00
2023-07-18T11:35:34.623Z,3882.00
2023-07-18T11:36:34.605Z,4082.00
2023-07-18T11:37:41.545Z,4837.00
2023-07-18T11:38:35.541Z,4473.00
2023-07-18T11:39:34.584Z,4756.00
2023-07-18T11:40:34.555Z,4870.00
2023-07-18T11:41:34.555Z,4281.00
2023-07-18T11:42:34.533Z,3928.00
2023-07-18T11:43:34.540Z,3686.00
2023-07-18T11:44:34.542Z,3490.00
2023-07-18T11:45:34.525Z,3358.00
2023-07-18T11:46:34.509Z,3235.00
2023-07-18T11:47:34.614Z,3256.00
2023-07-18T11:48:34.593Z,3297.00
2023-07-18T11:49:34.524Z,3459.00
2023-07-18T11:50:34.493Z,3730.00
2023-07-18T11:51:34.522Z,3728.00
2023-07-18T11:52:34.454Z,3821.00
2023-07-18T11:53:34.501Z,3567.00
2023-07-18T11:54:34.492Z,3483.00
2023-07-18T11:55:34.477Z,3419.00
2023-07-18T11:56:34.418Z,3411.00
2023-07-18T11:57:34.475Z,3347.00
2023-07-18T11:58:34.459Z,3241.00
2023-07-18T11:59:34.474Z,3106.00
2023-07-18T12:00:34.392Z,2983.00
2023-07-18T12:01:36.384Z,2888.00
2023-07-18T12:02:34.484Z,2822.00
2023-07-18T12:03:34.514Z,2818.00
2023-07-18T12:04:34.409Z,2801.00
2023-07-18T12:05:34.410Z,2823.00
2023-07-18T12:06:34.379Z,2897.00
2023-07-18T12:07:34.398Z,2957.00
2023-07-18T12:08:34.376Z,3012.00
2023-07-18T12:09:34.346Z,3068.00
2023-07-18T12:10:34.369Z,3116.00
2023-07-18T12:11:34.335Z,3210.00
2023-07-18T12:12:34.333Z,3370.00
2023-07-18T12:13:34.336Z,3691.00
2023-07-18T12:14:34.351Z,4210.00
2023-07-18T12:15:37.131Z,5221.00
2023-07-18T12:16:34.352Z,5093.00
2023-07-18T12:17:34.357Z,5077.00
2023-07-18T12:18:34.272Z,4636.00
2023-07-18T12:19:34.296Z,4751.00
2023-07-18T12:20:34.291Z,4022.00
2023-07-18T12:21:34.315Z,3867.00